Joyce L. Vanenkevort — WDB9821 — position and weather

sailwx.info

Track history (hours):
 
Tides and Currents Weather Stations Pressure Air Temp Water Temp Dewpoint Dewpoint Depression Visibility Wind Speed Wind Dir Waves Ship Positions

Joyce L. Vanenkevort

Owner: VanEnkevort Tug & Barge, Escanaba, MI. More information available from US FCC via Universal Licensing System and Coast Guard Vessel Documentation Center.

Last reported at 2018-Jul-18 23:15 UTC. Time now 2018-Jul-20 02:48 UTC.
Position N 45°19' W 083°12'.

Length 258 m; draft 7 m.

Type: Other ship. MMSI: 366983440.

Date/timePositionNaut miles runAvg speedWind from/ knotsBaromVisibWave heightAir tempDewpointWater temp
2018-Jul-18 23:15N 45°19' W 083°12'311.4
2018-Jul-18 23:00N 45°22' W 083°15'611.3
2018-Jul-18 22:31N 45°26' W 083°20'611.4
2018-Jul-18 22:00N 45°30' W 083°25'611.4
2018-Jul-18 21:27N 45°35' W 083°30'511.5
2018-Jul-18 21:00N 45°40' W 083°35'611.5
2018-Jul-18 20:30N 45°44' W 083°40'611.7
2018-Jul-18 20:00N 45°49' W 083°45'711.8
2018-Jul-18 19:22N 45°55' W 083°51'411.1
2018-Jul-18 19:00N 45°59' W 083°53'9 9.7
2018-Jul-18 18:06N 46°05' W 084°01'110.1
2018-Jul-18 18:00N 46°07' W 084°01'304 9.2
2018-Jul-17 09:00N 47°04' W 091°15'611.5
2018-Jul-17 08:30N 47°03' W 091°23'611.5
2018-Jul-17 08:00N 47°01' W 091°31'610.9
2018-Jul-17 07:28N 46°60' W 091°40'1 2.6
2018-Jul-17 07:01N 47°01' W 091°40'0 0.1
2018-Jul-17 06:23N 47°01' W 091°40'0 0.0
2018-Jul-17 06:00N 47°01' W 091°40'0 0.0
2018-Jul-16 23:18N 47°01' W 091°40'0 0.0
2018-Jul-16 22:54N 47°01' W 091°40'0 0.1
2018-Jul-16 21:18N 47°01' W 091°40'1 4.2
2018-Jul-16 21:00N 46°60' W 091°41'611.2
2018-Jul-16 20:30N 46°55' W 091°46'611.5
2018-Jul-16 20:00N 46°52' W 091°53'611.7
2018-Jul-16 19:30N 46°49' W 092°00'5 9.3
2018-Jul-16 19:01N 46°46' W 092°06'2 3.5
2018-Jul-16 18:31N 46°45' W 092°07'1 1.8
2018-Jul-16 18:00N 46°45' W 092°08'0 0.0
2018-Jul-16 17:30N 46°45' W 092°08'0 0.0
2018-Jul-16 17:00N 46°45' W 092°08'0 0.0
2018-Jul-16 16:30N 46°45' W 092°08'0 0.0
2018-Jul-16 15:58N 46°45' W 092°08'0 0.0
2018-Jul-16 15:30N 46°45' W 092°08'0 0.0
2018-Jul-16 15:00N 46°45' W 092°08'0 0.0
2018-Jul-16 14:27N 46°45' W 092°08'0 0.0
2018-Jul-16 14:01N 46°45' W 092°08'0 0.0
2018-Jul-16 13:30N 46°45' W 092°08'0 0.0
2018-Jul-16 13:01N 46°45' W 092°08'0 0.0
2018-Jul-16 12:30N 46°45' W 092°08'0 0.0
2018-Jul-16 12:00N 46°45' W 092°08'0 0.0
2018-Jul-16 11:29N 46°45' W 092°08'0 0.0
2018-Jul-16 10:59N 46°45' W 092°08'0 0.0
2018-Jul-16 10:31N 46°45' W 092°08'0 0.3
2018-Jul-16 10:01N 46°45' W 092°08'1 1.1
2018-Jul-16 09:30N 46°45' W 092°07'1 3.0
2018-Jul-16 09:00N 46°46' W 092°06'3 6.0
2018-Jul-16 08:30N 46°48' W 092°02'611.0
2018-Jul-16 08:00N 46°50' W 091°55'611.2
2018-Jul-16 07:30N 46°52' W 091°47'611.3
2018-Jul-16 07:00N 46°54' W 091°40'611.3
2018-Jul-16 06:30N 46°56' W 091°32'4811.4
2018-Jul-16 02:20N 47°12' W 090°26'22710.9
2018-Jul-15 05:30N 46°46' W 084°56'80 6.1
2018-Jul-14 16:21N 45°40' W 083°49'411.4
2018-Jul-14 16:01N 45°36' W 083°49'611.4
2018-Jul-14 15:31N 45°30' W 083°47'510.0
2018-Jul-14 15:00N 45°25' W 083°46'1 1.9
2018-Jul-14 14:30N 45°25' W 083°47'0 0.1
2018-Jul-14 13:30N 45°25' W 083°47'0 0.0
2018-Jul-14 13:01N 45°25' W 083°47'0 0.0
2018-Jul-14 12:31N 45°25' W 083°47'0 0.1
2018-Jul-14 12:01N 45°25' W 083°47'0 0.0
2018-Jul-14 11:30N 45°25' W 083°47'0 0.0
2018-Jul-14 11:00N 45°25' W 083°47'0 0.0
2018-Jul-14 10:30N 45°25' W 083°47'0 0.0
2018-Jul-14 10:00N 45°25' W 083°47'0 0.0
2018-Jul-14 09:30N 45°25' W 083°47'0 0.0
2018-Jul-14 09:00N 45°25' W 083°47'0 0.0
2018-Jul-14 08:30N 45°25' W 083°47'0 0.0
2018-Jul-14 08:00N 45°25' W 083°47'0 0.0
2018-Jul-14 07:31N 45°25' W 083°47'0 0.0
2018-Jul-14 07:00N 45°25' W 083°47'0 0.0
2018-Jul-14 06:30N 45°25' W 083°47'0 0.0
2018-Jul-14 06:00N 45°25' W 083°47'0 0.0
2018-Jul-14 05:31N 45°25' W 083°47'0 0.0
2018-Jul-14 05:00N 45°25' W 083°47'0 0.0
2018-Jul-14 04:30N 45°25' W 083°47'0 0.0
2018-Jul-14 04:00N 45°25' W 083°47'0 0.0
2018-Jul-14 03:31N 45°25' W 083°47'0 0.0
2018-Jul-14 03:01N 45°25' W 083°47'0 0.0
2018-Jul-14 02:30N 45°25' W 083°47'0 0.0
2018-Jul-14 02:00N 45°25' W 083°47'0 0.0
2018-Jul-14 01:31N 45°25' W 083°47'0 0.0
2018-Jul-14 01:01N 45°25' W 083°47'0 0.0
2018-Jul-14 00:30N 45°25' W 083°47'0 0.0
2018-Jul-14 00:01N 45°25' W 083°47'0 0.0
2018-Jul-13 23:30N 45°25' W 083°47'0 0.0
2018-Jul-13 23:00N 45°25' W 083°47'0 0.0
2018-Jul-13 22:30N 45°25' W 083°47'0 0.4
2018-Jul-13 22:00N 45°25' W 083°47'1 2.4
2018-Jul-13 21:31N 45°26' W 083°46'510.8
2018-Jul-13 21:01N 45°30' W 083°51'1911.7
2018-Jul-13 19:22N 45°40' W 084°15'811.5
2018-Jul-13 18:39N 45°42' W 084°26'211.9
2018-Jul-13 18:30N 45°42' W 084°29'812.1
2018-Jul-13 17:51N 45°47' W 084°38'512.1
2018-Jul-13 17:29N 45°49' W 084°44'612.3
2018-Jul-13 17:01N 45°49' W 084°52'28016501.5
2018-Jul-13 17:00N 47°30' W 091°12'274554.1 240 / 5
2018-Jul-13 16:30N 45°50' W 085°01'510.8
2018-Jul-13 16:00N 45°49' W 085°08'611.2
2018-Jul-13 15:25N 45°43' W 085°12'511.8
2018-Jul-13 15:00N 45°39' W 085°17'611.8
2018-Jul-13 14:29N 45°34' W 085°22'1311.8
2018-Jul-13 13:24N 45°23' W 085°32'611.8
2018-Jul-13 12:54N 45°19' W 085°37'48 1.0
2018-Jul-11 13:15N 44°43' W 086°24'311.7
2018-Jul-11 13:00N 44°46' W 086°23'611.8
2018-Jul-11 12:31N 44°52' W 086°20'711.4
2018-Jul-11 11:55N 44°58' W 086°18'511.6
2018-Jul-11 11:30N 45°03' W 086°16'611.5
2018-Jul-11 11:01N 45°08' W 086°14'5311.1
2018-Jul-11 06:11N 45°54' W 085°33'211.6
2018-Jul-11 06:00N 45°54' W 085°30'611.5
2018-Jul-11 05:31N 45°53' W 085°22'1211.7
2018-Jul-11 04:30N 45°51' W 085°05'811.6
2018-Jul-11 03:47N 45°50' W 084°54'411.5
2018-Jul-11 03:29N 45°49' W 084°49'510.9
2018-Jul-11 03:01N 45°49' W 084°41'611.0
2018-Jul-11 02:31N 45°51' W 084°34'611.7
2018-Jul-11 02:00N 45°52' W 084°25'611.5
2018-Jul-11 01:28N 45°53' W 084°17'611.4
2018-Jul-11 00:57N 45°54' W 084°08'83 5.9
2018-Jul-10 11:00N 46°57' W 085°27'611.7
2018-Jul-10 10:31N 46°59' W 085°34'611.7
2018-Jul-10 10:00N 47°01' W 085°43'611.7
2018-Jul-10 09:30N 47°03' W 085°51'611.7
2018-Jul-10 09:01N 47°05' W 085°58'611.7
2018-Jul-10 08:30N 47°07' W 086°07'611.7
2018-Jul-10 08:01N 47°09' W 086°14'611.7
2018-Jul-10 07:30N 47°12' W 086°22'20411.2
2018-Jul-09 13:18N 47°01' W 091°22'411.7
2018-Jul-09 12:58N 46°59' W 091°27'511.9
2018-Jul-09 12:30N 46°57' W 091°34'611.8
2018-Jul-09 12:00N 46°54' W 091°42'611.8
2018-Jul-09 11:30N 46°52' W 091°50'611.8
2018-Jul-09 10:59N 46°49' W 091°58'511.2
2018-Jul-09 10:31N 46°47' W 092°05'2 4.2
2018-Jul-09 10:00N 46°45' W 092°06'1 1.9
2018-Jul-09 09:30N 46°45' W 092°08'0 0.6
2018-Jul-09 09:00N 46°45' W 092°08'0 0.0
2018-Jul-09 08:30N 46°45' W 092°08'0 0.1
2018-Jul-09 08:00N 46°45' W 092°08'0 0.0
2018-Jul-09 07:30N 46°45' W 092°08'0 0.0
2018-Jul-09 07:00N 46°45' W 092°08'0 0.0
2018-Jul-09 06:30N 46°45' W 092°08'0 0.0
2018-Jul-09 06:00N 46°45' W 092°08'0 0.0
2018-Jul-09 05:31N 46°45' W 092°08'0 0.0
2018-Jul-09 05:01N 46°45' W 092°08'0 0.0
2018-Jul-09 04:30N 46°45' W 092°08'0 0.0
2018-Jul-09 04:00N 46°45' W 092°08'0 0.0
2018-Jul-09 03:30N 46°45' W 092°08'0 0.0
2018-Jul-09 03:00N 46°45' W 092°08'0 0.0
2018-Jul-09 02:30N 46°45' W 092°08'0 0.0
2018-Jul-09 01:58N 46°45' W 092°08'0 0.0
2018-Jul-09 01:30N 46°45' W 092°08'0 0.0
2018-Jul-09 01:00N 46°45' W 092°08'0 0.0
2018-Jul-09 00:31N 46°45' W 092°08'0 0.0
2018-Jul-09 00:00N 46°45' W 092°08'0 0.0
2018-Jul-08 23:31N 46°45' W 092°08'  
Track history (hours):
 
Tides and Currents Weather Stations Pressure Air Temp Water Temp Dewpoint Dewpoint Depression Visibility Wind Speed Wind Dir Waves Ship Positions

Joyce L. Vanenkevort

Owner: VanEnkevort Tug & Barge, Escanaba, MI. More information available from US FCC via Universal Licensing System and Coast Guard Vessel Documentation Center.

Last reported at 2018-Jul-18 23:15 UTC. Time now 2018-Jul-20 02:48 UTC.
Position N 45°19' W 083°12'.

Length 258 m; draft 7 m.

Type: Other ship. MMSI: 366983440.

Date/timePositionNaut miles runAvg speedWind from/ knotsBaromVisibWave heightAir tempDewpointWater temp
2018-Jul-18 23:15N 45°19' W 083°12'311.4
2018-Jul-18 23:00N 45°22' W 083°15'611.3
2018-Jul-18 22:31N 45°26' W 083°20'611.4
2018-Jul-18 22:00N 45°30' W 083°25'611.4
2018-Jul-18 21:27N 45°35' W 083°30'511.5
2018-Jul-18 21:00N 45°40' W 083°35'611.5
2018-Jul-18 20:30N 45°44' W 083°40'611.7
2018-Jul-18 20:00N 45°49' W 083°45'711.8
2018-Jul-18 19:22N 45°55' W 083°51'411.1
2018-Jul-18 19:00N 45°59' W 083°53'9 9.7
2018-Jul-18 18:06N 46°05' W 084°01'110.1
2018-Jul-18 18:00N 46°07' W 084°01'304 9.2
2018-Jul-17 09:00N 47°04' W 091°15'611.5
2018-Jul-17 08:30N 47°03' W 091°23'611.5
2018-Jul-17 08:00N 47°01' W 091°31'610.9
2018-Jul-17 07:28N 46°60' W 091°40'1 2.6
2018-Jul-17 07:01N 47°01' W 091°40'0 0.1
2018-Jul-17 06:23N 47°01' W 091°40'0 0.0
2018-Jul-17 06:00N 47°01' W 091°40'0 0.0
2018-Jul-16 23:18N 47°01' W 091°40'0 0.0
2018-Jul-16 22:54N 47°01' W 091°40'0 0.1
2018-Jul-16 21:18N 47°01' W 091°40'1 4.2
2018-Jul-16 21:00N 46°60' W 091°41'611.2
2018-Jul-16 20:30N 46°55' W 091°46'611.5
2018-Jul-16 20:00N 46°52' W 091°53'611.7
2018-Jul-16 19:30N 46°49' W 092°00'5 9.3
2018-Jul-16 19:01N 46°46' W 092°06'2 3.5
2018-Jul-16 18:31N 46°45' W 092°07'1 1.8
2018-Jul-16 18:00N 46°45' W 092°08'0 0.0
2018-Jul-16 17:30N 46°45' W 092°08'0 0.0
2018-Jul-16 17:00N 46°45' W 092°08'0 0.0
2018-Jul-16 16:30N 46°45' W 092°08'0 0.0
2018-Jul-16 15:58N 46°45' W 092°08'0 0.0
2018-Jul-16 15:30N 46°45' W 092°08'0 0.0
2018-Jul-16 15:00N 46°45' W 092°08'0 0.0
2018-Jul-16 14:27N 46°45' W 092°08'0 0.0
2018-Jul-16 14:01N 46°45' W 092°08'0 0.0
2018-Jul-16 13:30N 46°45' W 092°08'0 0.0
2018-Jul-16 13:01N 46°45' W 092°08'0 0.0
2018-Jul-16 12:30N 46°45' W 092°08'0 0.0
2018-Jul-16 12:00N 46°45' W 092°08'0 0.0
2018-Jul-16 11:29N 46°45' W 092°08'0 0.0
2018-Jul-16 10:59N 46°45' W 092°08'0 0.0
2018-Jul-16 10:31N 46°45' W 092°08'0 0.3
2018-Jul-16 10:01N 46°45' W 092°08'1 1.1
2018-Jul-16 09:30N 46°45' W 092°07'1 3.0
2018-Jul-16 09:00N 46°46' W 092°06'3 6.0
2018-Jul-16 08:30N 46°48' W 092°02'611.0
2018-Jul-16 08:00N 46°50' W 091°55'611.2
2018-Jul-16 07:30N 46°52' W 091°47'611.3
2018-Jul-16 07:00N 46°54' W 091°40'611.3
2018-Jul-16 06:30N 46°56' W 091°32'4811.4
2018-Jul-16 02:20N 47°12' W 090°26'22710.9
2018-Jul-15 05:30N 46°46' W 084°56'80 6.1
2018-Jul-14 16:21N 45°40' W 083°49'411.4
2018-Jul-14 16:01N 45°36' W 083°49'611.4
2018-Jul-14 15:31N 45°30' W 083°47'510.0
2018-Jul-14 15:00N 45°25' W 083°46'1 1.9
2018-Jul-14 14:30N 45°25' W 083°47'0 0.1
2018-Jul-14 13:30N 45°25' W 083°47'0 0.0
2018-Jul-14 13:01N 45°25' W 083°47'0 0.0
2018-Jul-14 12:31N 45°25' W 083°47'0 0.1
2018-Jul-14 12:01N 45°25' W 083°47'0 0.0
2018-Jul-14 11:30N 45°25' W 083°47'0 0.0
2018-Jul-14 11:00N 45°25' W 083°47'0 0.0
2018-Jul-14 10:30N 45°25' W 083°47'0 0.0
2018-Jul-14 10:00N 45°25' W 083°47'0 0.0
2018-Jul-14 09:30N 45°25' W 083°47'0 0.0
2018-Jul-14 09:00N 45°25' W 083°47'0 0.0
2018-Jul-14 08:30N 45°25' W 083°47'0 0.0
2018-Jul-14 08:00N 45°25' W 083°47'0 0.0
2018-Jul-14 07:31N 45°25' W 083°47'0 0.0
2018-Jul-14 07:00N 45°25' W 083°47'0 0.0
2018-Jul-14 06:30N 45°25' W 083°47'0 0.0
2018-Jul-14 06:00N 45°25' W 083°47'0 0.0
2018-Jul-14 05:31N 45°25' W 083°47'0 0.0
2018-Jul-14 05:00N 45°25' W 083°47'0 0.0
2018-Jul-14 04:30N 45°25' W 083°47'0 0.0
2018-Jul-14 04:00N 45°25' W 083°47'0 0.0
2018-Jul-14 03:31N 45°25' W 083°47'0 0.0
2018-Jul-14 03:01N 45°25' W 083°47'0 0.0
2018-Jul-14 02:30N 45°25' W 083°47'0 0.0
2018-Jul-14 02:00N 45°25' W 083°47'0 0.0
2018-Jul-14 01:31N 45°25' W 083°47'0 0.0
2018-Jul-14 01:01N 45°25' W 083°47'0 0.0
2018-Jul-14 00:30N 45°25' W 083°47'0 0.0
2018-Jul-14 00:01N 45°25' W 083°47'0 0.0
2018-Jul-13 23:30N 45°25' W 083°47'0 0.0
2018-Jul-13 23:00N 45°25' W 083°47'0 0.0
2018-Jul-13 22:30N 45°25' W 083°47'0 0.4
2018-Jul-13 22:00N 45°25' W 083°47'1 2.4
2018-Jul-13 21:31N 45°26' W 083°46'510.8
2018-Jul-13 21:01N 45°30' W 083°51'1911.7
2018-Jul-13 19:22N 45°40' W 084°15'811.5
2018-Jul-13 18:39N 45°42' W 084°26'211.9
2018-Jul-13 18:30N 45°42' W 084°29'812.1
2018-Jul-13 17:51N 45°47' W 084°38'512.1
2018-Jul-13 17:29N 45°49' W 084°44'612.3
2018-Jul-13 17:01N 45°49' W 084°52'28016501.5
2018-Jul-13 17:00N 47°30' W 091°12'274554.1 240 / 5
2018-Jul-13 16:30N 45°50' W 085°01'510.8
2018-Jul-13 16:00N 45°49' W 085°08'611.2
2018-Jul-13 15:25N 45°43' W 085°12'511.8
2018-Jul-13 15:00N 45°39' W 085°17'611.8
2018-Jul-13 14:29N 45°34' W 085°22'1311.8
2018-Jul-13 13:24N 45°23' W 085°32'611.8
2018-Jul-13 12:54N 45°19' W 085°37'48 1.0
2018-Jul-11 13:15N 44°43' W 086°24'311.7
2018-Jul-11 13:00N 44°46' W 086°23'611.8
2018-Jul-11 12:31N 44°52' W 086°20'711.4
2018-Jul-11 11:55N 44°58' W 086°18'511.6
2018-Jul-11 11:30N 45°03' W 086°16'611.5
2018-Jul-11 11:01N 45°08' W 086°14'5311.1
2018-Jul-11 06:11N 45°54' W 085°33'211.6
2018-Jul-11 06:00N 45°54' W 085°30'611.5
2018-Jul-11 05:31N 45°53' W 085°22'1211.7
2018-Jul-11 04:30N 45°51' W 085°05'811.6
2018-Jul-11 03:47N 45°50' W 084°54'411.5
2018-Jul-11 03:29N 45°49' W 084°49'510.9
2018-Jul-11 03:01N 45°49' W 084°41'611.0
2018-Jul-11 02:31N 45°51' W 084°34'611.7
2018-Jul-11 02:00N 45°52' W 084°25'611.5
2018-Jul-11 01:28N 45°53' W 084°17'611.4
2018-Jul-11 00:57N 45°54' W 084°08'83 5.9
2018-Jul-10 11:00N 46°57' W 085°27'611.7
2018-Jul-10 10:31N 46°59' W 085°34'611.7
2018-Jul-10 10:00N 47°01' W 085°43'611.7
2018-Jul-10 09:30N 47°03' W 085°51'611.7
2018-Jul-10 09:01N 47°05' W 085°58'611.7
2018-Jul-10 08:30N 47°07' W 086°07'611.7
2018-Jul-10 08:01N 47°09' W 086°14'611.7
2018-Jul-10 07:30N 47°12' W 086°22'20411.2
2018-Jul-09 13:18N 47°01' W 091°22'411.7
2018-Jul-09 12:58N 46°59' W 091°27'511.9
2018-Jul-09 12:30N 46°57' W 091°34'611.8
2018-Jul-09 12:00N 46°54' W 091°42'611.8
2018-Jul-09 11:30N 46°52' W 091°50'611.8
2018-Jul-09 10:59N 46°49' W 091°58'511.2
2018-Jul-09 10:31N 46°47' W 092°05'2 4.2
2018-Jul-09 10:00N 46°45' W 092°06'1 1.9
2018-Jul-09 09:30N 46°45' W 092°08'0 0.6
2018-Jul-09 09:00N 46°45' W 092°08'0 0.0
2018-Jul-09 08:30N 46°45' W 092°08'0 0.1
2018-Jul-09 08:00N 46°45' W 092°08'0 0.0
2018-Jul-09 07:30N 46°45' W 092°08'0 0.0
2018-Jul-09 07:00N 46°45' W 092°08'0 0.0
2018-Jul-09 06:30N 46°45' W 092°08'0 0.0
2018-Jul-09 06:00N 46°45' W 092°08'0 0.0
2018-Jul-09 05:31N 46°45' W 092°08'0 0.0
2018-Jul-09 05:01N 46°45' W 092°08'0 0.0
2018-Jul-09 04:30N 46°45' W 092°08'0 0.0
2018-Jul-09 04:00N 46°45' W 092°08'0 0.0
2018-Jul-09 03:30N 46°45' W 092°08'0 0.0
2018-Jul-09 03:00N 46°45' W 092°08'0 0.0
2018-Jul-09 02:30N 46°45' W 092°08'0 0.0
2018-Jul-09 01:58N 46°45' W 092°08'0 0.0
2018-Jul-09 01:30N 46°45' W 092°08'0 0.0
2018-Jul-09 01:00N 46°45' W 092°08'0 0.0
2018-Jul-09 00:31N 46°45' W 092°08'0 0.0
2018-Jul-09 00:00N 46°45' W 092°08'0 0.0
2018-Jul-08 23:31N 46°45' W 092°08'  

Dump ship's entire track history